createdAt,value
2018-09-30T00:00:01.523Z,3.02
2018-09-30T00:01:01.499Z,2.97
2018-09-30T00:02:01.473Z,2.97
2018-09-30T00:03:01.450Z,2.85
2018-09-30T00:04:01.427Z,2.84
2018-09-30T00:05:01.405Z,2.89
2018-09-30T00:06:01.382Z,2.97
2018-09-30T00:07:01.357Z,2.98
2018-09-30T00:08:01.332Z,2.92
2018-09-30T00:09:01.316Z,2.94
2018-09-30T00:10:01.288Z,2.91
2018-09-30T00:11:01.265Z,2.98
2018-09-30T00:12:01.241Z,2.95
2018-09-30T00:13:01.220Z,2.95
2018-09-30T00:14:01.194Z,2.92
2018-09-30T00:15:01.169Z,2.92
2018-09-30T00:16:01.143Z,2.89
2018-09-30T00:17:01.128Z,2.89
2018-09-30T00:18:01.096Z,2.79
2018-09-30T00:19:01.079Z,2.76
2018-09-30T00:20:01.051Z,2.84
2018-09-30T00:21:01.025Z,2.82
2018-09-30T00:22:01.009Z,2.79
2018-09-30T00:23:00.978Z,2.85
2018-09-30T00:24:00.955Z,2.79
2018-09-30T00:25:00.935Z,2.74
2018-09-30T00:26:00.910Z,2.79
2018-09-30T00:27:00.884Z,2.76
2018-09-30T00:28:00.868Z,2.76
2018-09-30T00:29:00.837Z,2.73
2018-09-30T00:30:00.814Z,2.70
2018-09-30T00:31:00.793Z,2.70
2018-09-30T00:32:00.772Z,2.73
2018-09-30T00:33:00.752Z,2.69
2018-09-30T00:34:00.719Z,2.61
2018-09-30T00:35:00.694Z,2.74
2018-09-30T00:36:00.672Z,2.66
2018-09-30T00:37:00.655Z,2.77
2018-09-30T00:38:00.626Z,2.69
2018-09-30T00:39:00.607Z,2.77
2018-09-30T00:40:00.584Z,2.73
2018-09-30T00:41:00.554Z,2.73
2018-09-30T00:42:00.531Z,2.82
2018-09-30T00:43:00.505Z,2.74
2018-09-30T00:44:00.482Z,2.67
2018-09-30T00:45:00.461Z,2.61
2018-09-30T00:46:00.435Z,2.69
2018-09-30T00:47:00.413Z,2.73
2018-09-30T00:48:00.393Z,2.70
2018-09-30T00:49:00.371Z,2.69
2018-09-30T00:50:00.341Z,2.77
2018-09-30T00:51:00.326Z,2.76
2018-09-30T00:52:00.303Z,2.76
2018-09-30T00:53:00.278Z,2.84
2018-09-30T00:54:00.252Z,2.77
2018-09-30T00:55:00.223Z,2.77
2018-09-30T00:56:00.203Z,2.76
2018-09-30T00:57:00.181Z,2.77
2018-09-30T00:58:00.156Z,2.77
2018-09-30T00:59:00.135Z,2.88
2018-09-30T01:00:00.106Z,2.92
2018-09-30T01:01:00.085Z,2.89
2018-09-30T01:02:00.066Z,2.91
2018-09-30T01:03:00.042Z,2.92
2018-09-30T01:04:00.013Z,2.97
2018-09-30T01:04:59.987Z,3.02
2018-09-30T01:05:59.964Z,3.12
2018-09-30T01:06:59.942Z,3.28
2018-09-30T01:07:59.922Z,3.28
2018-09-30T01:08:59.894Z,3.44
2018-09-30T01:09:59.883Z,3.57
2018-09-30T01:10:59.849Z,3.54
2018-09-30T01:11:59.829Z,3.47
2018-09-30T01:12:59.801Z,3.44
2018-09-30T01:13:59.781Z,3.42
2018-09-30T01:14:59.752Z,3.34
2018-09-30T01:15:59.727Z,3.36
2018-09-30T01:16:59.715Z,3.33
2018-09-30T01:17:59.684Z,3.31
2018-09-30T01:18:59.656Z,3.16
2018-09-30T01:19:59.633Z,3.06
2018-09-30T01:20:59.611Z,3.00
2018-09-30T01:21:59.592Z,2.95
2018-09-30T01:22:59.563Z,2.89
2018-09-30T01:23:59.551Z,2.92
2018-09-30T01:24:59.515Z,2.89
2018-09-30T01:25:59.499Z,2.82
2018-09-30T01:26:59.477Z,2.89
2018-09-30T01:27:59.447Z,2.85
2018-09-30T01:29:00.074Z,2.94
2018-09-30T01:29:59.400Z,2.88
2018-09-30T01:30:59.381Z,2.95
2018-09-30T01:31:59.358Z,2.92
2018-09-30T01:32:59.333Z,2.81
2018-09-30T01:33:59.304Z,2.77
2018-09-30T01:34:59.287Z,2.79
2018-09-30T01:35:59.259Z,2.77
2018-09-30T01:36:59.243Z,2.88
2018-09-30T01:37:59.211Z,2.77
2018-09-30T01:38:59.193Z,2.77
2018-09-30T01:39:59.164Z,2.88
2018-09-30T01:40:59.139Z,2.82
2018-09-30T01:41:59.122Z,2.88
2018-09-30T01:42:59.094Z,2.92
2018-09-30T01:43:59.075Z,2.88
2018-09-30T01:44:59.043Z,2.79
2018-09-30T01:45:59.023Z,2.81
2018-09-30T01:46:59.005Z,2.82
2018-09-30T01:47:58.976Z,2.84
2018-09-30T01:48:58.954Z,2.77
2018-09-30T01:49:58.933Z,2.84
2018-09-30T01:50:58.910Z,2.74
2018-09-30T01:51:58.881Z,2.66
2018-09-30T01:52:58.857Z,2.63
2018-09-30T01:53:58.834Z,2.56
2018-09-30T01:54:58.807Z,2.61
2018-09-30T01:55:58.787Z,2.63
2018-09-30T01:56:58.763Z,2.81
2018-09-30T01:57:58.737Z,2.74
2018-09-30T01:58:58.714Z,2.71
2018-09-30T01:59:58.689Z,2.79
2018-09-30T02:00:58.666Z,2.81
2018-09-30T02:01:58.641Z,2.82
2018-09-30T02:02:58.619Z,2.87
2018-09-30T02:03:58.596Z,3.05
2018-09-30T02:04:58.571Z,2.97
2018-09-30T02:05:58.548Z,3.10
2018-09-30T02:06:58.523Z,3.10
2018-09-30T02:07:58.507Z,3.05
2018-09-30T02:08:58.485Z,3.09
2018-09-30T02:09:58.453Z,2.97
2018-09-30T02:10:58.434Z,2.97
2018-09-30T02:11:58.411Z,2.89
2018-09-30T02:12:58.386Z,2.88
2018-09-30T02:13:58.358Z,2.77
2018-09-30T02:14:58.343Z,2.81
2018-09-30T02:15:58.313Z,2.76
2018-09-30T02:16:58.295Z,2.73
2018-09-30T02:17:58.265Z,2.64
2018-09-30T02:18:58.240Z,2.59
2018-09-30T02:19:58.218Z,2.58
2018-09-30T02:20:58.201Z,2.52
2018-09-30T02:21:58.169Z,2.53
2018-09-30T02:22:58.148Z,2.55
2018-09-30T02:23:58.129Z,2.49
2018-09-30T02:24:58.109Z,2.56
2018-09-30T02:25:58.077Z,2.49
2018-09-30T02:26:58.059Z,2.56
2018-09-30T02:27:58.027Z,2.51
2018-09-30T02:28:58.007Z,2.49
2018-09-30T02:29:57.984Z,2.53
2018-09-30T02:30:57.957Z,2.53
2018-09-30T02:31:57.939Z,2.48
2018-09-30T02:32:57.910Z,2.48
2018-09-30T02:33:57.885Z,2.35
2018-09-30T02:34:57.862Z,2.56
2018-09-30T02:35:57.843Z,2.41
2018-09-30T02:36:57.821Z,2.56
2018-09-30T02:37:57.788Z,2.48
2018-09-30T02:38:57.768Z,2.53
2018-09-30T02:39:57.745Z,2.51
2018-09-30T02:40:57.719Z,2.56
2018-09-30T02:41:57.697Z,2.56
2018-09-30T02:42:57.671Z,2.55
2018-09-30T02:43:57.649Z,2.58
2018-09-30T02:44:57.627Z,2.48
2018-09-30T02:45:57.601Z,2.46
2018-09-30T02:46:57.579Z,2.48
2018-09-30T02:47:57.558Z,2.49
2018-09-30T02:48:57.537Z,2.55
2018-09-30T02:49:57.511Z,2.38
2018-09-30T02:50:57.485Z,2.27
2018-09-30T02:51:57.459Z,2.41
2018-09-30T02:52:57.441Z,2.27
2018-09-30T02:53:57.412Z,2.23
2018-09-30T02:54:57.392Z,2.26
2018-09-30T02:55:57.366Z,2.19
2018-09-30T02:56:57.347Z,2.19
2018-09-30T02:57:57.315Z,2.15
2018-09-30T02:58:57.293Z,2.12
2018-09-30T02:59:57.277Z,2.10
2018-09-30T03:00:57.251Z,2.04
2018-09-30T03:01:57.229Z,1.98
2018-09-30T03:02:57.197Z,2.01
2018-09-30T03:03:57.174Z,1.87
2018-09-30T03:04:57.152Z,1.90
2018-09-30T03:05:57.132Z,2.02
2018-09-30T03:06:57.106Z,2.10
2018-09-30T03:07:57.077Z,2.12
2018-09-30T03:08:57.055Z,2.20
2018-09-30T03:09:57.029Z,2.17
2018-09-30T03:10:57.007Z,2.20
2018-09-30T03:11:56.981Z,2.22
2018-09-30T03:12:56.965Z,2.19
2018-09-30T03:13:56.938Z,2.17
2018-09-30T03:14:56.914Z,2.16
2018-09-30T03:15:56.891Z,2.12
2018-09-30T03:16:56.872Z,2.09
2018-09-30T03:17:56.841Z,2.04
2018-09-30T03:18:56.821Z,2.06
2018-09-30T03:19:56.793Z,2.01
2018-09-30T03:20:56.772Z,2.02
2018-09-30T03:21:56.742Z,2.08
2018-09-30T03:22:56.723Z,2.08
2018-09-30T03:23:56.704Z,2.08
2018-09-30T03:24:56.672Z,2.09
2018-09-30T03:25:56.663Z,2.19
2018-09-30T03:26:56.624Z,2.19
2018-09-30T03:27:56.609Z,2.19
2018-09-30T03:28:56.576Z,2.17
2018-09-30T03:29:56.562Z,2.13
2018-09-30T03:30:56.536Z,2.20
2018-09-30T03:31:56.506Z,2.08
2018-09-30T03:32:56.490Z,2.06
2018-09-30T03:33:56.465Z,2.10
2018-09-30T03:34:56.443Z,1.94
2018-09-30T03:35:56.411Z,1.98
2018-09-30T03:36:56.385Z,1.94
2018-09-30T03:37:56.369Z,1.87
2018-09-30T03:38:56.340Z,1.90
2018-09-30T03:39:56.318Z,1.83
2018-09-30T03:40:56.299Z,1.79
2018-09-30T03:41:56.267Z,1.75
2018-09-30T03:42:56.242Z,1.75
2018-09-30T03:43:56.219Z,1.79
2018-09-30T03:44:56.203Z,1.85
2018-09-30T03:45:56.177Z,1.80
2018-09-30T03:46:56.155Z,1.87
2018-09-30T03:47:56.123Z,1.80
2018-09-30T03:48:56.106Z,1.80
2018-09-30T03:49:56.087Z,1.90
2018-09-30T03:50:56.052Z,1.90
2018-09-30T03:51:56.035Z,1.73
2018-09-30T03:52:56.005Z,1.87
2018-09-30T03:53:55.985Z,1.83
2018-09-30T03:54:55.955Z,1.72
2018-09-30T03:55:55.932Z,1.93
2018-09-30T03:56:55.924Z,2.27
2018-09-30T03:57:55.884Z,2.41
2018-09-30T03:58:55.859Z,2.59
2018-09-30T03:59:55.845Z,2.70
2018-09-30T04:00:55.811Z,2.77
2018-09-30T04:01:55.812Z,2.71
2018-09-30T04:02:55.768Z,2.59
2018-09-30T04:03:55.745Z,2.49
2018-09-30T04:04:55.724Z,2.49
2018-09-30T04:05:55.704Z,2.37
2018-09-30T04:06:55.671Z,2.40
2018-09-30T04:07:55.652Z,2.37
2018-09-30T04:08:55.631Z,2.33
2018-09-30T04:09:55.616Z,2.26
2018-09-30T04:10:55.578Z,2.28
2018-09-30T04:11:55.550Z,2.22
2018-09-30T04:12:55.542Z,2.56
2018-09-30T04:13:55.501Z,2.52
2018-09-30T04:14:55.485Z,2.56
2018-09-30T04:15:55.452Z,2.63
2018-09-30T04:16:55.456Z,2.69
2018-09-30T04:17:55.414Z,2.61
2018-09-30T04:18:55.384Z,2.51
2018-09-30T04:19:55.357Z,2.70
2018-09-30T04:20:55.336Z,2.70
2018-09-30T04:21:55.316Z,2.64
2018-09-30T04:22:55.295Z,2.51
2018-09-30T04:23:55.265Z,2.56
2018-09-30T04:24:55.254Z,2.61
2018-09-30T04:25:55.218Z,2.53
2018-09-30T04:26:55.192Z,2.67
2018-09-30T04:27:55.169Z,2.61
2018-09-30T04:28:55.143Z,2.74
2018-09-30T04:29:55.127Z,2.70
2018-09-30T04:30:55.094Z,2.70
2018-09-30T04:31:55.072Z,2.64
2018-09-30T04:32:55.050Z,2.56
2018-09-30T04:33:55.025Z,2.49
2018-09-30T04:34:55.007Z,2.56
2018-09-30T04:35:54.978Z,2.59
2018-09-30T04:36:54.953Z,2.76
2018-09-30T04:37:54.929Z,2.84
2018-09-30T04:38:54.906Z,2.88
2018-09-30T04:39:54.883Z,2.82
2018-09-30T04:40:54.864Z,2.85
2018-09-30T04:41:54.834Z,2.89
2018-09-30T04:42:54.809Z,2.89
2018-09-30T04:43:54.786Z,2.85
2018-09-30T04:44:54.764Z,2.92
2018-09-30T04:45:54.744Z,2.98
2018-09-30T04:46:54.722Z,2.95
2018-09-30T04:47:54.697Z,2.89
2018-09-30T04:48:54.668Z,2.89
2018-09-30T04:49:54.657Z,2.73
2018-09-30T04:50:54.620Z,2.71
2018-09-30T04:51:54.598Z,2.69
2018-09-30T04:52:54.575Z,2.87
2018-09-30T04:53:54.550Z,2.82
2018-09-30T04:54:54.524Z,2.84
2018-09-30T04:55:54.501Z,2.88
2018-09-30T04:56:54.479Z,2.91
2018-09-30T04:57:54.477Z,2.84
2018-09-30T04:58:54.431Z,2.91
2018-09-30T04:59:54.412Z,2.84
2018-09-30T05:00:54.386Z,3.00
2018-09-30T05:01:54.359Z,2.97
2018-09-30T05:02:54.344Z,2.97
2018-09-30T05:03:54.312Z,2.97
2018-09-30T05:04:54.298Z,2.89
2018-09-30T05:05:54.325Z,2.87
2018-09-30T05:06:54.240Z,2.87
2018-09-30T05:07:54.221Z,2.84
2018-09-30T05:08:54.199Z,2.76
2018-09-30T05:09:54.176Z,2.85
2018-09-30T05:10:54.150Z,2.82
2018-09-30T05:11:54.123Z,2.87
2018-09-30T05:12:54.107Z,2.74
2018-09-30T05:13:54.075Z,2.76
2018-09-30T05:14:54.056Z,2.74
2018-09-30T05:15:54.069Z,2.89
2018-09-30T05:16:54.005Z,3.10
2018-09-30T05:17:53.986Z,3.44
2018-09-30T05:18:53.956Z,3.54
2018-09-30T05:19:53.938Z,3.62
2018-09-30T05:20:53.909Z,3.80
2018-09-30T05:21:53.886Z,4.00
2018-09-30T05:22:53.868Z,4.25
2018-09-30T05:23:53.842Z,4.44
2018-09-30T05:24:53.813Z,4.57
2018-09-30T05:25:53.794Z,4.58
2018-09-30T05:26:53.768Z,4.64
2018-09-30T05:27:53.743Z,4.73
2018-09-30T05:28:53.724Z,4.94
2018-09-30T05:29:53.701Z,5.05
2018-09-30T05:30:53.672Z,5.34
2018-09-30T05:31:53.650Z,5.49
2018-09-30T05:32:53.634Z,5.59
2018-09-30T05:33:53.607Z,5.68
2018-09-30T05:34:53.583Z,5.73
2018-09-30T05:35:53.562Z,5.71
2018-09-30T05:36:53.533Z,5.85
2018-09-30T05:37:53.514Z,5.88
2018-09-30T05:38:53.492Z,5.86
2018-09-30T05:39:53.465Z,6.00
2018-09-30T05:40:53.447Z,5.95
2018-09-30T05:41:53.418Z,6.01
2018-09-30T05:42:53.392Z,6.11
2018-09-30T05:43:53.370Z,6.03
2018-09-30T05:44:53.346Z,5.98
2018-09-30T05:45:53.329Z,5.75
2018-09-30T05:46:53.301Z,5.82
2018-09-30T05:47:53.302Z,5.78
2018-09-30T05:48:53.256Z,5.60
2018-09-30T05:49:53.230Z,5.35
2018-09-30T05:50:53.208Z,5.28
2018-09-30T05:51:53.188Z,5.10
2018-09-30T05:52:53.161Z,5.02
2018-09-30T05:53:53.140Z,4.80
2018-09-30T05:54:53.120Z,4.64
2018-09-30T05:55:53.098Z,4.55
2018-09-30T05:56:53.075Z,4.40
2018-09-30T05:57:53.074Z,4.29
2018-09-30T05:58:53.031Z,4.07
2018-09-30T05:59:53.006Z,4.14
2018-09-30T06:00:52.983Z,4.00
2018-09-30T06:01:52.955Z,4.01
2018-09-30T06:02:52.931Z,3.92
2018-09-30T06:03:52.943Z,3.92
2018-09-30T06:04:52.891Z,3.92
2018-09-30T06:05:52.866Z,3.92
2018-09-30T06:06:52.853Z,3.89
2018-09-30T06:07:52.820Z,3.85
2018-09-30T06:08:52.802Z,3.94
2018-09-30T06:09:52.769Z,3.72
2018-09-30T06:10:52.746Z,3.82
2018-09-30T06:11:52.737Z,3.90
2018-09-30T06:12:52.704Z,4.12
2018-09-30T06:13:52.764Z,4.22
2018-09-30T06:14:52.654Z,4.42
2018-09-30T06:15:52.708Z,4.59
2018-09-30T06:16:52.609Z,4.61
2018-09-30T06:17:52.585Z,4.79
2018-09-30T06:18:52.568Z,4.62
2018-09-30T06:19:52.544Z,4.64
2018-09-30T06:20:52.521Z,4.52
2018-09-30T06:21:52.490Z,4.55
2018-09-30T06:22:52.470Z,4.44
2018-09-30T06:23:52.453Z,4.40
2018-09-30T06:24:52.423Z,4.37
2018-09-30T06:25:52.397Z,4.24
2018-09-30T06:26:52.381Z,4.22
2018-09-30T06:27:52.358Z,4.18
2018-09-30T06:28:52.329Z,4.26
2018-09-30T06:29:52.307Z,4.28
2018-09-30T06:30:52.291Z,4.42
2018-09-30T06:31:52.276Z,4.57
2018-09-30T06:32:52.243Z,4.64
2018-09-30T06:33:52.221Z,4.64
2018-09-30T06:34:52.192Z,4.64
2018-09-30T06:35:52.172Z,4.67
2018-09-30T06:36:52.150Z,4.64
2018-09-30T06:37:52.122Z,4.61
2018-09-30T06:38:52.106Z,4.58
2018-09-30T06:39:52.086Z,4.67
2018-09-30T06:40:52.060Z,4.57
2018-09-30T06:41:52.028Z,4.64
2018-09-30T06:42:52.006Z,4.64
2018-09-30T06:43:51.987Z,4.54
2018-09-30T06:44:52.005Z,4.67
2018-09-30T06:45:51.940Z,4.65
2018-09-30T06:46:51.915Z,4.73
2018-09-30T06:47:51.892Z,4.83
2018-09-30T06:48:51.873Z,4.95
2018-09-30T06:49:51.850Z,5.02
2018-09-30T06:50:51.884Z,5.09
2018-09-30T06:51:51.812Z,5.14
2018-09-30T06:52:51.780Z,5.12
2018-09-30T06:53:51.762Z,5.12
2018-09-30T06:54:51.733Z,5.17
2018-09-30T06:55:51.712Z,5.25
2018-09-30T06:56:52.618Z,5.20
2018-09-30T06:57:51.660Z,5.16
2018-09-30T06:58:51.653Z,5.31
2018-09-30T06:59:51.615Z,5.37
2018-09-30T07:00:51.599Z,5.48
2018-09-30T07:01:51.570Z,5.48
2018-09-30T07:02:51.554Z,5.59
2018-09-30T07:03:51.529Z,5.64
2018-09-30T07:04:51.555Z,5.66
2018-09-30T07:05:51.477Z,5.75
2018-09-30T07:06:51.463Z,5.75
2018-09-30T07:07:51.432Z,5.81
2018-09-30T07:08:51.413Z,5.98
2018-09-30T07:09:51.389Z,6.10
2018-09-30T07:10:51.452Z,6.30
2018-09-30T07:11:51.343Z,6.40
2018-09-30T07:12:51.321Z,6.65
2018-09-30T07:13:51.302Z,6.84
2018-09-30T07:14:51.279Z,6.95
2018-09-30T07:15:51.253Z,6.98
2018-09-30T07:16:51.303Z,7.05
2018-09-30T07:17:51.212Z,7.08
2018-09-30T07:18:51.187Z,7.08
2018-09-30T07:19:51.166Z,7.20
2018-09-30T07:20:51.147Z,7.26
2018-09-30T07:21:51.120Z,7.32
2018-09-30T07:22:51.173Z,7.50
2018-09-30T07:23:51.079Z,7.66
2018-09-30T07:24:51.050Z,7.77
2018-09-30T07:25:51.034Z,7.89
2018-09-30T07:26:51.015Z,8.08
2018-09-30T07:27:50.983Z,8.15
2018-09-30T07:28:50.971Z,8.36
2018-09-30T07:29:50.945Z,8.72
2018-09-30T07:30:50.918Z,9.25
2018-09-30T07:31:50.895Z,10.01
2018-09-30T07:32:50.881Z,10.71
2018-09-30T07:33:50.951Z,11.49
2018-09-30T07:34:50.831Z,12.01
2018-09-30T07:35:50.817Z,12.81
2018-09-30T07:36:50.792Z,13.20
2018-09-30T07:37:50.768Z,13.69
2018-09-30T07:38:50.746Z,14.06
2018-09-30T07:39:50.730Z,14.17
2018-09-30T07:40:50.702Z,14.50
2018-09-30T07:41:50.682Z,14.65
2018-09-30T07:42:50.660Z,14.87
2018-09-30T07:43:50.638Z,14.83
2018-09-30T07:44:50.619Z,14.74
2018-09-30T07:45:50.606Z,14.75
2018-09-30T07:46:50.666Z,15.06
2018-09-30T07:47:50.574Z,15.28
2018-09-30T07:48:50.540Z,15.68
2018-09-30T07:49:50.517Z,16.00
2018-09-30T07:50:50.504Z,16.25
2018-09-30T07:51:50.483Z,16.42
2018-09-30T07:52:50.466Z,16.74
2018-09-30T07:53:50.450Z,16.71
2018-09-30T07:54:50.424Z,16.40
2018-09-30T07:55:50.405Z,16.70
2018-09-30T07:56:50.388Z,16.88
2018-09-30T07:57:50.374Z,17.17
2018-09-30T07:58:50.351Z,17.46
2018-09-30T07:59:50.332Z,17.50
2018-09-30T08:00:50.321Z,17.32
2018-09-30T08:01:50.298Z,17.64
2018-09-30T08:02:50.286Z,17.82
2018-09-30T08:03:50.267Z,17.62
2018-09-30T08:04:50.255Z,17.94
2018-09-30T08:05:50.226Z,18.33
2018-09-30T08:06:50.213Z,18.67
2018-09-30T08:07:50.196Z,18.76
2018-09-30T08:08:50.178Z,18.70
2018-09-30T08:09:50.168Z,19.15
2018-09-30T08:10:50.151Z,19.39
2018-09-30T08:11:50.135Z,19.39
2018-09-30T08:12:50.118Z,19.25
2018-09-30T08:13:50.103Z,19.36
2018-09-30T08:14:50.084Z,19.61
2018-09-30T08:15:50.069Z,19.66
2018-09-30T08:16:50.096Z,19.39
2018-09-30T08:17:50.040Z,19.38
2018-09-30T08:18:50.028Z,19.54
2018-09-30T08:19:50.004Z,19.68
2018-09-30T08:20:49.991Z,19.78
2018-09-30T08:21:49.981Z,19.80
2018-09-30T08:22:49.963Z,19.90
2018-09-30T08:23:49.952Z,20.03
2018-09-30T08:24:49.946Z,20.21
2018-09-30T08:25:49.921Z,19.93
2018-09-30T08:26:49.901Z,20.06
2018-09-30T08:27:49.895Z,20.27
2018-09-30T08:28:49.882Z,20.46
2018-09-30T08:29:49.863Z,20.54
2018-09-30T08:30:49.969Z,20.05
2018-09-30T08:31:49.834Z,20.41
2018-09-30T08:32:49.828Z,20.30
2018-09-30T08:33:49.813Z,19.79
2018-09-30T08:34:49.795Z,19.68
2018-09-30T08:35:49.786Z,19.87
2018-09-30T08:36:49.766Z,20.13
2018-09-30T08:37:49.757Z,19.90
2018-09-30T08:38:49.744Z,19.95
2018-09-30T08:39:49.839Z,20.12
2018-09-30T08:40:49.716Z,20.27
2018-09-30T08:41:49.709Z,20.25
2018-09-30T08:42:49.685Z,20.27
2018-09-30T08:43:49.735Z,20.41
2018-09-30T08:44:49.691Z,20.66
2018-09-30T08:45:49.702Z,20.43
2018-09-30T08:46:49.655Z,20.31
2018-09-30T08:47:49.694Z,20.79
2018-09-30T08:48:49.607Z,21.08
2018-09-30T08:49:49.594Z,20.93
2018-09-30T08:50:49.582Z,21.06
2018-09-30T08:51:49.564Z,20.79
2018-09-30T08:52:49.557Z,20.27
2018-09-30T08:53:49.614Z,20.42
2018-09-30T08:54:49.526Z,20.53
2018-09-30T08:55:49.520Z,20.30
2018-09-30T08:56:49.561Z,20.53
2018-09-30T08:57:49.487Z,20.30
2018-09-30T08:58:49.485Z,20.15
2018-09-30T08:59:49.462Z,20.13
2018-09-30T09:00:49.452Z,20.13
2018-09-30T09:01:49.432Z,20.27
2018-09-30T09:02:49.420Z,20.53
2018-09-30T09:03:49.414Z,20.81
2018-09-30T09:04:49.402Z,20.96
2018-09-30T09:05:49.382Z,20.99
2018-09-30T09:06:49.369Z,21.26
2018-09-30T09:07:49.368Z,21.05
2018-09-30T09:08:49.355Z,21.19
2018-09-30T09:09:49.378Z,21.05
2018-09-30T09:10:49.319Z,20.95
2018-09-30T09:11:49.306Z,21.32
2018-09-30T09:12:49.314Z,20.95
2018-09-30T09:13:49.280Z,20.91
2018-09-30T09:14:49.277Z,20.83
2018-09-30T09:15:49.258Z,20.93
2018-09-30T09:16:49.249Z,20.83
2018-09-30T09:17:49.232Z,20.99
2018-09-30T09:18:49.216Z,21.21
2018-09-30T09:19:49.210Z,21.46
2018-09-30T09:20:49.199Z,21.85
2018-09-30T09:21:49.193Z,22.16
2018-09-30T09:22:49.248Z,22.50
2018-09-30T09:23:49.152Z,22.54
2018-09-30T09:24:49.143Z,22.59
2018-09-30T09:25:49.133Z,22.25
2018-09-30T09:26:49.120Z,21.85
2018-09-30T09:27:49.104Z,21.51
2018-09-30T09:28:49.102Z,21.60
2018-09-30T09:29:49.083Z,21.53
2018-09-30T09:30:49.070Z,21.97
2018-09-30T09:31:49.123Z,22.10
2018-09-30T09:32:49.061Z,22.12
2018-09-30T09:33:49.035Z,22.47
2018-09-30T09:34:49.025Z,22.07
2018-09-30T09:35:49.014Z,22.10
2018-09-30T09:36:49.012Z,22.37
2018-09-30T09:37:48.992Z,22.75
2018-09-30T09:38:48.983Z,22.72
2018-09-30T09:39:48.964Z,22.50
2018-09-30T09:40:48.955Z,22.44
2018-09-30T09:41:48.948Z,22.53
2018-09-30T09:42:48.935Z,22.56
2018-09-30T09:43:48.922Z,22.56
2018-09-30T09:44:48.916Z,22.46
2018-09-30T09:45:48.903Z,22.52
2018-09-30T09:46:48.898Z,22.54
2018-09-30T09:47:48.881Z,22.64
2018-09-30T09:48:48.874Z,22.78
2018-09-30T09:49:48.852Z,22.60
2018-09-30T09:50:48.852Z,22.67
2018-09-30T09:51:48.833Z,23.07
2018-09-30T09:52:48.823Z,23.19
2018-09-30T09:53:48.814Z,22.77
2018-09-30T09:54:48.804Z,22.46
2018-09-30T09:55:48.794Z,22.39
2018-09-30T09:56:48.788Z,22.56
2018-09-30T09:57:48.778Z,22.92
2018-09-30T09:58:48.805Z,22.90
2018-09-30T09:59:48.748Z,23.14
2018-09-30T10:00:48.744Z,22.94
2018-09-30T10:01:48.729Z,22.56
2018-09-30T10:02:48.721Z,22.83
2018-09-30T10:03:48.713Z,22.84
2018-09-30T10:04:48.694Z,23.04
2018-09-30T10:05:48.692Z,23.05
2018-09-30T10:06:48.687Z,23.19
2018-09-30T10:07:48.674Z,23.23
2018-09-30T10:08:48.658Z,23.38
2018-09-30T10:09:48.699Z,22.99
2018-09-30T10:10:48.655Z,22.78
2018-09-30T10:11:48.639Z,22.37
2018-09-30T10:12:48.626Z,22.14
2018-09-30T10:13:48.617Z,22.06
2018-09-30T10:14:48.607Z,22.14
2018-09-30T10:15:48.601Z,21.88
2018-09-30T10:16:48.594Z,21.57
2018-09-30T10:17:48.585Z,20.99
2018-09-30T10:18:48.575Z,20.72
2018-09-30T10:19:48.569Z,20.98
2018-09-30T10:20:48.553Z,20.87
2018-09-30T10:21:48.553Z,20.98
2018-09-30T10:22:48.537Z,20.93
2018-09-30T10:23:48.538Z,21.51
2018-09-30T10:24:48.528Z,21.53
2018-09-30T10:25:48.515Z,21.69
2018-09-30T10:26:48.505Z,21.95
2018-09-30T10:27:48.498Z,21.92
2018-09-30T10:28:48.489Z,21.35
2018-09-30T10:29:48.487Z,21.48
2018-09-30T10:30:48.476Z,21.97
2018-09-30T10:31:48.474Z,22.20
2018-09-30T10:32:48.457Z,22.34
2018-09-30T10:33:48.448Z,21.99
2018-09-30T10:34:48.445Z,22.20
2018-09-30T10:35:48.442Z,22.17
2018-09-30T10:36:48.428Z,22.10
2018-09-30T10:37:48.422Z,22.13
2018-09-30T10:38:48.483Z,22.10
2018-09-30T10:39:48.413Z,22.27
2018-09-30T10:40:48.403Z,22.13
2018-09-30T10:41:48.387Z,22.32
2018-09-30T10:42:48.384Z,21.67
2018-09-30T10:43:48.380Z,21.20
2018-09-30T10:44:48.370Z,21.20
2018-09-30T10:45:48.360Z,20.91
2018-09-30T10:46:48.354Z,20.72
2018-09-30T10:47:48.347Z,21.04
2018-09-30T10:48:48.346Z,21.24
2018-09-30T10:49:48.341Z,21.59
2018-09-30T10:50:48.335Z,21.48
2018-09-30T10:51:48.330Z,21.71
2018-09-30T10:52:48.322Z,22.01
2018-09-30T10:53:48.316Z,21.98
2018-09-30T10:54:48.306Z,22.34
2018-09-30T10:55:48.299Z,22.59
2018-09-30T10:56:48.353Z,22.65
2018-09-30T10:57:48.288Z,22.80
2018-09-30T10:58:48.281Z,22.67
2018-09-30T10:59:48.277Z,22.77
2018-09-30T11:00:48.264Z,22.89
2018-09-30T11:01:48.266Z,22.74
2018-09-30T11:02:48.251Z,22.46
2018-09-30T11:03:48.245Z,22.19
2018-09-30T11:04:48.247Z,22.41
2018-09-30T11:05:48.229Z,22.65
2018-09-30T11:06:48.232Z,22.93
2018-09-30T11:07:48.226Z,22.89
2018-09-30T11:08:48.223Z,22.83
2018-09-30T11:09:48.297Z,22.64
2018-09-30T11:10:48.212Z,22.20
2018-09-30T11:11:48.200Z,21.83
2018-09-30T11:12:48.200Z,21.50
2018-09-30T11:13:48.197Z,21.27
2018-09-30T11:14:48.191Z,20.86
2018-09-30T11:15:48.190Z,20.96
2018-09-30T11:16:48.181Z,20.90
2018-09-30T11:17:48.171Z,21.04
2018-09-30T11:18:48.167Z,21.32
2018-09-30T11:19:48.163Z,21.48
2018-09-30T11:20:48.160Z,21.75
2018-09-30T11:21:48.157Z,21.99
2018-09-30T11:22:48.146Z,22.10
2018-09-30T11:23:48.141Z,21.85
2018-09-30T11:24:48.141Z,22.02
2018-09-30T11:25:48.131Z,21.88
2018-09-30T11:26:48.128Z,21.53
2018-09-30T11:27:48.119Z,21.29
2018-09-30T11:28:48.118Z,21.01
2018-09-30T11:29:48.112Z,20.74
2018-09-30T11:30:48.105Z,20.84
2018-09-30T11:31:48.180Z,20.72
2018-09-30T11:32:48.097Z,20.84
2018-09-30T11:33:48.090Z,21.02
2018-09-30T11:34:48.087Z,21.29
2018-09-30T11:35:48.083Z,21.66
2018-09-30T11:36:48.087Z,21.74
2018-09-30T11:37:48.071Z,21.60
2018-09-30T11:38:48.071Z,21.74
2018-09-30T11:39:48.065Z,21.98
2018-09-30T11:40:48.068Z,22.10
2018-09-30T11:41:48.058Z,22.04
2018-09-30T11:42:48.096Z,21.91
2018-09-30T11:43:48.046Z,21.88
2018-09-30T11:44:48.046Z,21.98
2018-09-30T11:45:48.036Z,21.88
2018-09-30T11:46:48.037Z,21.81
2018-09-30T11:47:48.036Z,21.63
2018-09-30T11:48:48.030Z,21.72
2018-09-30T11:49:48.023Z,21.76
2018-09-30T11:50:48.023Z,21.97
2018-09-30T11:51:48.014Z,22.27
2018-09-30T11:52:48.064Z,22.46
2018-09-30T11:53:48.007Z,22.10
2018-09-30T11:54:48.008Z,21.56
2018-09-30T11:55:47.995Z,21.21
2018-09-30T11:56:47.995Z,21.36
2018-09-30T11:57:47.988Z,21.66
2018-09-30T11:58:47.990Z,22.04
2018-09-30T11:59:47.978Z,22.31
2018-09-30T12:00:47.975Z,22.43
2018-09-30T12:01:47.971Z,22.43
2018-09-30T12:02:47.975Z,22.50
2018-09-30T12:03:47.968Z,22.41
2018-09-30T12:04:47.964Z,21.94
2018-09-30T12:05:47.955Z,21.85
2018-09-30T12:06:47.959Z,21.20
2018-09-30T12:07:47.955Z,21.23
2018-09-30T12:08:47.951Z,21.23
2018-09-30T12:09:47.942Z,21.48
2018-09-30T12:10:47.938Z,21.24
2018-09-30T12:11:47.932Z,21.30
2018-09-30T12:12:47.929Z,21.30
2018-09-30T12:13:47.929Z,21.11
2018-09-30T12:14:47.920Z,21.24
2018-09-30T12:15:47.916Z,21.39
2018-09-30T12:16:47.913Z,21.29
2018-09-30T12:17:47.913Z,21.44
2018-09-30T12:18:48.012Z,21.51
2018-09-30T12:19:47.906Z,21.67
2018-09-30T12:20:47.897Z,21.74
2018-09-30T12:21:47.894Z,21.92
2018-09-30T12:22:47.896Z,21.72
2018-09-30T12:23:47.884Z,21.74
2018-09-30T12:24:47.887Z,21.74
2018-09-30T12:25:47.932Z,21.69
2018-09-30T12:26:47.875Z,21.71
2018-09-30T12:27:47.874Z,22.06
2018-09-30T12:28:47.866Z,22.06
2018-09-30T12:29:47.870Z,21.94
2018-09-30T12:30:47.858Z,21.91
2018-09-30T12:31:47.860Z,21.76
2018-09-30T12:32:47.856Z,21.88
2018-09-30T12:33:47.849Z,21.92
2018-09-30T12:34:47.846Z,22.01
2018-09-30T12:35:47.843Z,22.17
2018-09-30T12:36:47.839Z,22.31
2018-09-30T12:37:47.830Z,22.37
2018-09-30T12:38:47.833Z,22.44
2018-09-30T12:39:47.827Z,22.34
2018-09-30T12:40:47.821Z,22.39
2018-09-30T12:41:47.820Z,22.56
2018-09-30T12:42:47.811Z,22.44
2018-09-30T12:43:47.808Z,22.41
2018-09-30T12:44:47.805Z,22.60
2018-09-30T12:45:47.801Z,22.60
2018-09-30T12:46:47.798Z,22.19
2018-09-30T12:47:47.795Z,22.01
2018-09-30T12:48:47.795Z,22.16
2018-09-30T12:49:47.794Z,22.06
2018-09-30T12:50:47.786Z,22.09
2018-09-30T12:51:47.782Z,22.31
2018-09-30T12:52:47.779Z,22.31
2018-09-30T12:53:47.768Z,22.52
2018-09-30T12:54:47.769Z,22.49
2018-09-30T12:55:47.769Z,22.67
2018-09-30T12:56:47.759Z,22.77
2018-09-30T12:57:47.756Z,22.60
2018-09-30T12:58:47.755Z,22.69
2018-09-30T12:59:47.746Z,22.52
2018-09-30T13:00:47.743Z,22.19
2018-09-30T13:01:47.746Z,22.32
2018-09-30T13:02:47.736Z,22.39
2018-09-30T13:03:47.736Z,22.31
2018-09-30T13:04:47.733Z,22.60
2018-09-30T13:05:47.731Z,22.78
2018-09-30T13:06:47.724Z,22.92